createdAt,value
2022-12-15T00:05:12.523Z,98994.09
2022-12-15T00:10:32.940Z,99009.97
2022-12-15T00:15:52.968Z,99005.28
2022-12-15T00:21:16.593Z,99003.25
2022-12-15T00:26:37.199Z,98996.03
2022-12-15T00:31:58.156Z,98989.44
2022-12-15T00:37:18.442Z,98995.50
2022-12-15T00:42:20.045Z,98998.53
2022-12-15T00:47:21.686Z,99000.91
2022-12-15T00:52:41.902Z,99011.28
2022-12-15T00:58:02.698Z,99016.78
2022-12-15T01:03:42.999Z,99015.00
2022-12-15T01:09:03.649Z,99022.59
2022-12-15T01:14:23.582Z,99030.44
2022-12-15T01:19:43.733Z,99040.53
2022-12-15T01:24:45.290Z,99049.88
2022-12-15T01:29:46.914Z,99056.81
2022-12-15T01:34:49.748Z,99065.75
2022-12-15T01:40:09.714Z,99067.41
2022-12-15T01:45:29.374Z,99080.06
2022-12-15T01:50:33.553Z,99079.00
2022-12-15T01:55:35.219Z,99082.75
2022-12-15T02:00:36.947Z,99104.34
2022-12-15T02:05:39.308Z,99104.34
2022-12-15T02:11:16.184Z,99103.13
2022-12-15T02:16:37.994Z,99112.88
2022-12-15T02:21:43.818Z,99116.19
2022-12-15T02:26:51.292Z,99109.41
2022-12-15T02:31:59.361Z,99118.28
2022-12-15T02:37:11.780Z,99121.19
2022-12-15T02:42:13.411Z,99116.59
2022-12-15T02:47:32.784Z,99120.91
2022-12-15T02:52:59.456Z,99113.97
2022-12-15T02:58:05.762Z,99126.47
2022-12-15T03:03:07.895Z,99130.81
2022-12-15T03:08:09.567Z,99145.59
2022-12-15T03:13:11.127Z,99153.44
2022-12-15T03:18:12.705Z,99156.25
2022-12-15T03:23:14.308Z,99163.72
2022-12-15T03:28:15.902Z,99180.75
2022-12-15T03:33:17.554Z,99181.78
2022-12-15T03:38:19.175Z,99183.28
2022-12-15T03:43:20.723Z,99196.44
2022-12-15T03:48:22.337Z,99207.09
2022-12-15T03:53:23.937Z,99204.31
2022-12-15T03:58:25.495Z,99204.31
2022-12-15T04:03:27.134Z,99200.75
2022-12-15T04:08:28.724Z,99205.41
2022-12-15T04:13:30.540Z,99223.84
2022-12-15T04:18:32.449Z,99234.78
2022-12-15T04:23:34.305Z,99242.28
2022-12-15T04:28:54.490Z,99249.94
2022-12-15T04:34:18.714Z,99252.50
2022-12-15T04:39:38.820Z,99264.63
2022-12-15T04:44:59.118Z,99277.28
2022-12-15T04:50:19.212Z,99282.78
2022-12-15T04:55:39.414Z,99296.25
2022-12-15T05:00:59.650Z,99303.72
2022-12-15T05:06:20.023Z,99296.25
2022-12-15T05:11:40.340Z,99299.47
2022-12-15T05:17:00.383Z,99305.16
2022-12-15T05:22:20.379Z,99309.28
2022-12-15T05:27:40.501Z,99321.72
2022-12-15T05:32:43.221Z,99327.72
2022-12-15T05:37:44.791Z,99333.94
2022-12-15T05:42:50.110Z,99345.34
2022-12-15T05:47:52.658Z,99338.00
2022-12-15T05:52:55.612Z,99346.44
2022-12-15T05:57:57.287Z,99354.97
2022-12-15T06:02:59.121Z,99359.94
2022-12-15T06:08:00.969Z,99369.25
2022-12-15T06:13:02.540Z,99377.22
2022-12-15T06:18:04.189Z,99381.72
2022-12-15T06:23:05.768Z,99382.88
2022-12-15T06:28:07.304Z,99392.22
2022-12-15T06:33:08.873Z,99396.34
2022-12-15T06:38:10.498Z,99407.31
2022-12-15T06:43:12.132Z,99417.13
2022-12-15T06:48:13.740Z,99418.03
2022-12-15T06:53:19.635Z,99427.22
2022-12-15T06:58:21.311Z,99440.19
2022-12-15T07:03:23.119Z,99441.22
2022-12-15T07:08:30.792Z,99435.97
2022-12-15T07:13:34.591Z,99446.22
2022-12-15T07:18:36.380Z,99449.72
2022-12-15T07:23:55.728Z,99465.25
2022-12-15T07:28:58.137Z,99468.41
2022-12-15T07:33:59.758Z,99472.72
2022-12-15T07:39:04.797Z,99479.53
2022-12-15T07:44:06.415Z,99494.22
2022-12-15T07:49:09.332Z,99493.88
2022-12-15T07:54:12.112Z,99502.63
2022-12-15T07:59:13.666Z,99514.06
2022-12-15T08:04:15.753Z,99514.59
2022-12-15T08:09:17.340Z,99501.06
2022-12-15T08:14:19.388Z,99503.53
2022-12-15T08:19:21.294Z,99501.41
2022-12-15T08:24:22.869Z,99519.59
2022-12-15T08:29:50.027Z,99518.81
2022-12-15T08:34:47.715Z,99541.19
2022-12-15T08:39:49.320Z,99539.66
2022-12-15T08:44:51.456Z,99542.50
2022-12-15T08:49:54.534Z,99545.59
2022-12-15T08:54:56.102Z,99547.19
2022-12-15T08:59:57.695Z,99550.97
2022-12-15T09:04:59.244Z,99534.19
2022-12-15T09:10:00.861Z,99545.50
2022-12-15T09:15:02.441Z,99550.44
2022-12-15T09:20:04.432Z,99555.47
2022-12-15T09:25:06.366Z,99558.56
2022-12-15T09:30:09.165Z,99557.59
2022-12-15T09:35:10.733Z,99559.53
2022-12-15T09:40:13.122Z,99559.97
2022-12-15T09:45:19.815Z,99556.38
2022-12-15T09:50:26.428Z,99559.97
2022-12-15T09:55:35.170Z,99563.53
2022-12-15T10:00:57.002Z,99565.41
2022-12-15T10:06:17.750Z,99573.34
2022-12-15T10:11:42.769Z,99568.13
2022-12-15T10:17:14.235Z,99577.25
2022-12-15T10:22:36.773Z,99586.47
2022-12-15T10:28:05.894Z,99584.47
2022-12-15T10:33:28.419Z,99598.84
2022-12-15T10:38:37.982Z,99598.25
2022-12-15T10:43:41.951Z,99596.72
2022-12-15T10:48:48.522Z,99597.41
2022-12-15T10:54:06.609Z,99603.94
2022-12-15T10:59:23.256Z,99603.50
2022-12-15T11:04:29.973Z,99599.03
2022-12-15T11:09:36.996Z,99600.09
2022-12-15T11:14:43.946Z,99587.34
2022-12-15T11:20:03.014Z,99598.59
2022-12-15T11:25:25.241Z,99597.34
2022-12-15T11:30:33.206Z,99595.38
2022-12-15T11:35:54.276Z,99602.13
2022-12-15T11:40:57.806Z,99594.63
2022-12-15T11:46:01.904Z,99586.38
2022-12-15T11:51:29.398Z,99583.50
2022-12-15T11:56:50.552Z,99598.34
2022-12-15T12:02:04.188Z,99592.88
2022-12-15T12:07:43.915Z,99581.09
2022-12-15T12:13:14.125Z,99591.63
2022-12-15T12:18:21.724Z,99582.00
2022-12-15T12:23:42.880Z,99565.59
2022-12-15T12:28:57.029Z,99559.41
2022-12-15T12:34:03.188Z,99565.13
2022-12-15T12:39:04.885Z,99565.25
2022-12-15T12:44:32.387Z,99557.97
2022-12-15T12:49:40.935Z,99575.66
2022-12-15T12:54:46.984Z,99571.25
2022-12-15T12:59:59.168Z,99570.31
2022-12-15T13:05:05.090Z,99574.84
2022-12-15T13:10:09.831Z,99574.06
2022-12-15T13:15:21.385Z,99563.38
2022-12-15T13:20:25.924Z,99563.88
2022-12-15T13:25:40.711Z,99557.22
2022-12-15T13:31:16.717Z,99550.28
2022-12-15T13:36:55.921Z,99548.22
2022-12-15T13:47:27.645Z,99572.03
2022-12-15T13:53:16.235Z,99571.19
2022-12-15T13:58:00.031Z,99575.50
2022-12-15T14:03:11.804Z,99585.16
2022-12-15T14:08:14.984Z,99594.72
2022-12-15T14:13:22.426Z,99596.31
2022-12-15T14:18:31.321Z,99594.81
2022-12-15T14:24:11.028Z,99586.28
2022-12-15T14:29:06.470Z,99579.88
2022-12-15T14:34:19.689Z,99582.31
2022-12-15T14:39:23.525Z,99584.09
2022-12-15T14:50:02.053Z,99590.31
2022-12-15T14:55:23.546Z,99598.25
2022-12-15T15:00:31.577Z,99597.09
2022-12-15T15:05:33.329Z,99590.00
2022-12-15T15:10:35.021Z,99586.03
2022-12-15T15:15:36.628Z,99586.97
2022-12-15T15:20:38.278Z,99583.91
2022-12-15T15:25:42.551Z,99583.03
2022-12-15T15:31:07.113Z,99588.44
2022-12-15T15:36:10.243Z,99584.31
2022-12-15T15:41:16.529Z,99590.13
2022-12-15T15:46:21.033Z,99580.19
2022-12-15T15:51:24.346Z,99581.78
2022-12-15T15:56:27.494Z,99576.41
2022-12-15T16:01:29.181Z,99580.94
2022-12-15T16:06:30.890Z,99584.03
2022-12-15T16:11:33.358Z,99600.28
2022-12-15T16:16:35.154Z,99602.31
2022-12-15T16:21:36.912Z,99606.03
2022-12-15T16:26:39.290Z,99602.84
2022-12-15T16:31:45.386Z,99608.22
2022-12-15T16:36:47.457Z,99598.25
2022-12-15T16:41:49.054Z,99608.75
2022-12-15T16:46:51.370Z,99619.56
2022-12-15T16:51:53.845Z,99635.09
2022-12-15T16:56:56.923Z,99633.25
2022-12-15T17:01:58.594Z,99642.81
2022-12-15T17:07:00.407Z,99640.63
2022-12-15T17:12:02.217Z,99630.53
2022-12-15T17:17:12.959Z,99632.31
2022-12-15T17:22:15.085Z,99639.03
2022-12-15T17:27:27.984Z,99644.88
2022-12-15T17:32:29.719Z,99635.06
2022-12-15T17:37:35.227Z,99627.03
2022-12-15T17:42:37.451Z,99623.53
2022-12-15T17:47:39.135Z,99626.75
2022-12-15T17:52:43.122Z,99623.19
2022-12-15T17:57:45.091Z,99631.53
2022-12-15T18:02:47.392Z,99626.75
2022-12-15T18:08:01.759Z,99617.88
2022-12-15T18:13:03.997Z,99616.19
2022-12-15T18:18:05.728Z,99593.00
2022-12-15T18:23:20.881Z,99603.75
2022-12-15T18:28:28.132Z,99607.63
2022-12-15T18:33:33.212Z,99616.00
2022-12-15T18:38:35.056Z,99634.84
2022-12-15T18:43:37.385Z,99638.91
2022-12-15T18:48:40.156Z,99639.84
2022-12-15T18:53:41.980Z,99633.84
2022-12-15T18:58:43.869Z,99615.66
2022-12-15T19:03:45.502Z,99619.47
2022-12-15T19:08:47.196Z,99612.03
2022-12-15T19:13:48.926Z,99608.16
2022-12-15T19:19:12.536Z,99612.13
2022-12-15T19:24:48.456Z,99607.56
2022-12-15T19:29:50.545Z,99602.84
2022-12-15T19:34:52.236Z,99610.59
2022-12-15T19:39:55.343Z,99616.84
2022-12-15T19:44:57.152Z,99602.50
2022-12-15T19:49:58.760Z,99607.38
2022-12-15T19:55:01.366Z,99609.91
2022-12-15T20:00:13.780Z,99606.44
2022-12-15T20:05:15.418Z,99600.81
2022-12-15T20:10:29.454Z,99601.06
2022-12-15T20:15:34.855Z,99603.16
2022-12-15T20:20:37.478Z,99602.41
2022-12-15T20:25:40.924Z,99594.38
2022-12-15T20:30:44.197Z,99599.25
2022-12-15T20:35:47.836Z,99584.16
2022-12-15T20:40:50.495Z,99580.31
2022-12-15T20:46:04.310Z,99566.72
2022-12-15T20:51:09.887Z,99552.78
2022-12-15T20:56:11.777Z,99553.41
2022-12-15T21:01:33.220Z,99542.03
2022-12-15T21:06:36.849Z,99527.59
2022-12-15T21:11:38.680Z,99541.09
2022-12-15T21:16:40.363Z,99539.94
2022-12-15T21:21:51.859Z,99541.31
2022-12-15T21:26:53.822Z,99528.00
2022-12-15T21:31:56.897Z,99527.03
2022-12-15T21:36:58.614Z,99533.97
2022-12-15T21:42:04.070Z,99520.91
2022-12-15T21:47:47.354Z,99519.06
2022-12-15T21:52:49.108Z,99516.56
2022-12-15T21:57:51.669Z,99519.56
2022-12-15T22:02:54.096Z,99524.66
2022-12-15T22:07:58.252Z,99530.94
2022-12-15T22:13:00.082Z,99529.63
2022-12-15T22:18:01.816Z,99534.03
2022-12-15T22:23:03.448Z,99537.38
2022-12-15T22:28:05.187Z,99546.44
2022-12-15T22:33:21.575Z,99545.47
2022-12-15T22:38:24.292Z,99539.25
2022-12-15T22:43:40.243Z,99539.75
2022-12-15T22:48:44.259Z,99547.72
2022-12-15T22:53:46.049Z,99549.38
2022-12-15T22:58:48.404Z,99551.72
2022-12-15T23:03:51.511Z,99550.53
2022-12-15T23:08:55.813Z,99555.97
2022-12-15T23:13:57.831Z,99564.41
2022-12-15T23:19:00.305Z,99562.72
2022-12-15T23:24:01.962Z,99559.16
2022-12-15T23:29:03.702Z,99534.84
2022-12-15T23:34:05.528Z,99529.47
2022-12-15T23:39:07.279Z,99507.97
2022-12-15T23:44:12.233Z,99519.09
2022-12-15T23:49:13.931Z,99510.84
2022-12-15T23:54:15.667Z,99524.91
2022-12-15T23:59:17.483Z,99522.53
